sensor_id;sensor_type;location;lat;lon;timestamp;pressure;altitude;pressure_sealevel;temperature;humidity
28312;BME280;15572;48.810;9.148;2023-02-23T00:03:46;97792.91;;;7.52;100.00
28312;BME280;15572;48.810;9.148;2023-02-23T00:08:44;97793.09;;;7.50;100.00
28312;BME280;15572;48.810;9.148;2023-02-23T00:13:43;97789.75;;;7.48;100.00
28312;BME280;15572;48.810;9.148;2023-02-23T00:18:44;97781.94;;;7.53;100.00
28312;BME280;15572;48.810;9.148;2023-02-23T00:23:46;97785.19;;;7.64;100.00
28312;BME280;15572;48.810;9.148;2023-02-23T00:28:43;97792.72;;;7.68;100.00
28312;BME280;15572;48.810;9.148;2023-02-23T00:33:39;97787.97;;;7.70;100.00
28312;BME280;15572;48.810;9.148;2023-02-23T00:38:38;97789.00;;;7.69;100.00
28312;BME280;15572;48.810;9.148;2023-02-23T00:43:36;97795.97;;;7.64;100.00
28312;BME280;15572;48.810;9.148;2023-02-23T00:48:33;97792.25;;;7.65;100.00
28312;BME280;15572;48.810;9.148;2023-02-23T00:53:30;97781.19;;;7.59;100.00
28312;BME280;15572;48.810;9.148;2023-02-23T00:58:29;97780.84;;;7.63;100.00
28312;BME280;15572;48.810;9.148;2023-02-23T01:03:26;97777.13;;;7.64;100.00
28312;BME280;15572;48.810;9.148;2023-02-23T01:08:23;97778.13;;;7.63;100.00
28312;BME280;15572;48.810;9.148;2023-02-23T01:13:20;97773.31;;;7.58;100.00
28312;BME280;15572;48.810;9.148;2023-02-23T01:18:19;97776.84;;;7.58;100.00
28312;BME280;15572;48.810;9.148;2023-02-23T01:23:16;97774.34;;;7.57;100.00
28312;BME280;15572;48.810;9.148;2023-02-23T01:28:12;97776.94;;;7.50;100.00
28312;BME280;15572;48.810;9.148;2023-02-23T01:33:09;97780.91;;;7.54;100.00
28312;BME280;15572;48.810;9.148;2023-02-23T01:38:09;97771.81;;;7.55;100.00
28312;BME280;15572;48.810;9.148;2023-02-23T01:43:11;97770.16;;;7.54;100.00
28312;BME280;15572;48.810;9.148;2023-02-23T01:48:11;97766.81;;;7.52;100.00
28312;BME280;15572;48.810;9.148;2023-02-23T01:53:10;97764.31;;;7.51;100.00
28312;BME280;15572;48.810;9.148;2023-02-23T01:58:09;97764.41;;;7.57;100.00
28312;BME280;15572;48.810;9.148;2023-02-23T02:03:14;97753.22;;;7.60;100.00
28312;BME280;15572;48.810;9.148;2023-02-23T02:08:14;97753.91;;;7.63;100.00
28312;BME280;15572;48.810;9.148;2023-02-23T02:13:17;97746.75;;;7.55;100.00
28312;BME280;15572;48.810;9.148;2023-02-23T02:18:19;97750.09;;;7.57;100.00
28312;BME280;15572;48.810;9.148;2023-02-23T02:40:06;97733.88;;;7.72;100.00
28312;BME280;15572;48.810;9.148;2023-02-23T02:45:16;97731.00;;;7.73;100.00
28312;BME280;15572;48.810;9.148;2023-02-23T02:50:21;97728.69;;;7.70;100.00
28312;BME280;15572;48.810;9.148;2023-02-23T02:55:23;97731.63;;;7.75;100.00
28312;BME280;15572;48.810;9.148;2023-02-23T03:00:35;97726.91;;;7.77;100.00
28312;BME280;15572;48.810;9.148;2023-02-23T03:05:51;97725.50;;;7.81;100.00
28312;BME280;15572;48.810;9.148;2023-02-23T03:11:09;97721.97;;;7.81;100.00
28312;BME280;15572;48.810;9.148;2023-02-23T03:16:30;97726.16;;;7.83;100.00
28312;BME280;15572;48.810;9.148;2023-02-23T03:21:50;97724.66;;;7.81;100.00
28312;BME280;15572;48.810;9.148;2023-02-23T03:27:15;97733.31;;;7.76;100.00
28312;BME280;15572;48.810;9.148;2023-02-23T03:32:32;97726.47;;;7.74;100.00
28312;BME280;15572;48.810;9.148;2023-02-23T03:37:53;97732.75;;;7.81;100.00
28312;BME280;15572;48.810;9.148;2023-02-23T03:43:15;97732.75;;;7.81;100.00
28312;BME280;15572;48.810;9.148;2023-02-23T03:48:32;97730.72;;;7.83;100.00
28312;BME280;15572;48.810;9.148;2023-02-23T03:53:52;97735.44;;;7.81;100.00
28312;BME280;15572;48.810;9.148;2023-02-23T03:59:11;97726.91;;;7.77;100.00
28312;BME280;15572;48.810;9.148;2023-02-23T04:04:28;97733.97;;;7.78;100.00
28312;BME280;15572;48.810;9.148;2023-02-23T04:09:43;97731.09;;;7.80;100.00
28312;BME280;15572;48.810;9.148;2023-02-23T04:15:04;97729.22;;;7.80;100.00
28312;BME280;15572;48.810;9.148;2023-02-23T04:20:03;97737.13;;;7.82;100.00
28312;BME280;15572;48.810;9.148;2023-02-23T04:25:01;97736.66;;;7.78;100.00
28312;BME280;15572;48.810;9.148;2023-02-23T04:29:59;97744.94;;;7.77;100.00
28312;BME280;15572;48.810;9.148;2023-02-23T04:34:55;97738.53;;;7.78;100.00
28312;BME280;15572;48.810;9.148;2023-02-23T04:39:52;97734.81;;;7.79;100.00
28312;BME280;15572;48.810;9.148;2023-02-23T04:44:48;97744.34;;;7.81;100.00
28312;BME280;15572;48.810;9.148;2023-02-23T04:54:43;97746.78;;;7.76;100.00
28312;BME280;15572;48.810;9.148;2023-02-23T04:59:40;97740.31;;;7.71;100.00
28312;BME280;15572;48.810;9.148;2023-02-23T05:04:36;97747.94;;;7.67;100.00
28312;BME280;15572;48.810;9.148;2023-02-23T05:09:33;97749.97;;;7.65;100.00
28312;BME280;15572;48.810;9.148;2023-02-23T05:14:31;97747.50;;;7.64;100.00
28312;BME280;15572;48.810;9.148;2023-02-23T05:19:27;97750.53;;;7.60;100.00
28312;BME280;15572;48.810;9.148;2023-02-23T05:24:24;97749.06;;;7.58;100.00
28312;BME280;15572;48.810;9.148;2023-02-23T05:29:20;97753.09;;;7.47;100.00
28312;BME280;15572;48.810;9.148;2023-02-23T05:34:19;97757.53;;;7.40;100.00
28312;BME280;15572;48.810;9.148;2023-02-23T05:39:15;97759.97;;;7.35;100.00
28312;BME280;15572;48.810;9.148;2023-02-23T05:44:12;97757.00;;;7.30;100.00
28312;BME280;15572;48.810;9.148;2023-02-23T05:49:09;97768.13;;;7.27;100.00
28312;BME280;15572;48.810;9.148;2023-02-23T05:54:08;97763.94;;;7.25;100.00
28312;BME280;15572;48.810;9.148;2023-02-23T05:59:04;97758.91;;;7.22;100.00
28312;BME280;15572;48.810;9.148;2023-02-23T06:04:01;97758.19;;;7.28;100.00
28312;BME280;15572;48.810;9.148;2023-02-23T06:08:57;97755.75;;;7.33;100.00
28312;BME280;15572;48.810;9.148;2023-02-23T06:13:56;97762.09;;;7.40;100.00
28312;BME280;15572;48.810;9.148;2023-02-23T06:18:53;97774.63;;;7.47;100.00
28312;BME280;15572;48.810;9.148;2023-02-23T06:23:50;97775.91;;;7.51;100.00
28312;BME280;15572;48.810;9.148;2023-02-23T06:28:47;97779.25;;;7.53;100.00
28312;BME280;15572;48.810;9.148;2023-02-23T06:33:46;97771.72;;;7.49;100.00
28312;BME280;15572;48.810;9.148;2023-02-23T06:38:42;97780.66;;;7.49;100.00
28312;BME280;15572;48.810;9.148;2023-02-23T06:43:40;97783.34;;;7.49;100.00
28312;BME280;15572;48.810;9.148;2023-02-23T06:48:37;97780.34;;;7.59;100.00
28312;BME280;15572;48.810;9.148;2023-02-23T06:53:35;97790.59;;;7.64;100.00
28312;BME280;15572;48.810;9.148;2023-02-23T06:58:31;97797.28;;;7.68;100.00
28312;BME280;15572;48.810;9.148;2023-02-23T07:03:28;97795.03;;;7.71;100.00
28312;BME280;15572;48.810;9.148;2023-02-23T07:08:24;97801.69;;;7.75;100.00
28312;BME280;15572;48.810;9.148;2023-02-23T07:13:22;97799.84;;;7.76;100.00
28312;BME280;15572;48.810;9.148;2023-02-23T07:18:18;97812.56;;;7.82;100.00
28312;BME280;15572;48.810;9.148;2023-02-23T07:23:15;97810.81;;;7.89;100.00
28312;BME280;15572;48.810;9.148;2023-02-23T07:28:11;97826.28;;;8.01;100.00
28312;BME280;15572;48.810;9.148;2023-02-23T07:33:10;97815.00;;;8.13;100.00
28312;BME280;15572;48.810;9.148;2023-02-23T07:38:06;97825.50;;;8.22;100.00
28312;BME280;15572;48.810;9.148;2023-02-23T07:43:03;97827.34;;;8.36;100.00
28312;BME280;15572;48.810;9.148;2023-02-23T07:47:59;97823.75;;;8.51;100.00
28312;BME280;15572;48.810;9.148;2023-02-23T07:52:58;97833.41;;;8.60;100.00
28312;BME280;15572;48.810;9.148;2023-02-23T07:57:55;97828.81;;;8.60;100.00
28312;BME280;15572;48.810;9.148;2023-02-23T08:02:52;97827.44;;;8.64;100.00
28312;BME280;15572;48.810;9.148;2023-02-23T08:07:48;97835.38;;;8.72;100.00
28312;BME280;15572;48.810;9.148;2023-02-23T08:12:46;97832.34;;;8.82;100.00
28312;BME280;15572;48.810;9.148;2023-02-23T08:17:43;97835.94;;;8.89;100.00
28312;BME280;15572;48.810;9.148;2023-02-23T08:22:39;97841.84;;;8.99;100.00
28312;BME280;15572;48.810;9.148;2023-02-23T08:27:36;97834.00;;;9.04;100.00
28312;BME280;15572;48.810;9.148;2023-02-23T08:32:35;97832.09;;;9.26;100.00
28312;BME280;15572;48.810;9.148;2023-02-23T08:37:31;97832.06;;;9.54;100.00
28312;BME280;15572;48.810;9.148;2023-02-23T08:42:28;97824.28;;;9.72;100.00
28312;BME280;15572;48.810;9.148;2023-02-23T08:47:24;97833.53;;;9.91;100.00
28312;BME280;15572;48.810;9.148;2023-02-23T08:52:22;97847.50;;;10.01;100.00
28312;BME280;15572;48.810;9.148;2023-02-23T08:57:19;97841.09;;;10.08;100.00
28312;BME280;15572;48.810;9.148;2023-02-23T09:02:16;97839.00;;;10.10;100.00
28312;BME280;15572;48.810;9.148;2023-02-23T09:07:15;97843.81;;;10.15;100.00
28312;BME280;15572;48.810;9.148;2023-02-23T09:12:14;97849.63;;;10.12;100.00
28312;BME280;15572;48.810;9.148;2023-02-23T09:17:11;97847.22;;;10.24;100.00
28312;BME280;15572;48.810;9.148;2023-02-23T09:22:07;97847.31;;;10.50;100.00
28312;BME280;15572;48.810;9.148;2023-02-23T09:27:04;97843.41;;;10.79;100.00
28312;BME280;15572;48.810;9.148;2023-02-23T09:32:03;97851.13;;;11.02;100.00
28312;BME280;15572;48.810;9.148;2023-02-23T09:37:00;97846.75;;;11.07;100.00
28312;BME280;15572;48.810;9.148;2023-02-23T09:42:10;97848.41;;;11.34;100.00
28312;BME280;15572;48.810;9.148;2023-02-23T09:47:23;97848.63;;;11.53;100.00
28312;BME280;15572;48.810;9.148;2023-02-23T09:52:26;97849.03;;;11.63;100.00
28312;BME280;15572;48.810;9.148;2023-02-23T09:57:28;97846.91;;;11.65;100.00
28312;BME280;15572;48.810;9.148;2023-02-23T10:02:34;97842.38;;;11.46;100.00
28312;BME280;15572;48.810;9.148;2023-02-23T10:07:41;97849.47;;;11.33;100.00
28312;BME280;15572;48.810;9.148;2023-02-23T10:12:46;97849.66;;;11.45;100.00
28312;BME280;15572;48.810;9.148;2023-02-23T10:17:54;97849.84;;;11.76;100.00
28312;BME280;15572;48.810;9.148;2023-02-23T10:22:59;97846.69;;;11.86;100.00
28312;BME280;15572;48.810;9.148;2023-02-23T10:27:59;97848.16;;;11.82;100.00
28312;BME280;15572;48.810;9.148;2023-02-23T10:33:03;97851.31;;;11.86;100.00
28312;BME280;15572;48.810;9.148;2023-02-23T10:38:02;97850.22;;;12.00;100.00
28312;BME280;15572;48.810;9.148;2023-02-23T10:42:59;97854.72;;;12.19;100.00
28312;BME280;15572;48.810;9.148;2023-02-23T10:47:59;97848.38;;;12.38;100.00
28312;BME280;15572;48.810;9.148;2023-02-23T10:52:58;97854.56;;;12.52;100.00
28312;BME280;15572;48.810;9.148;2023-02-23T10:58:05;97850.16;;;12.57;100.00
28312;BME280;15572;48.810;9.148;2023-02-23T11:03:16;97852.84;;;12.64;100.00
28312;BME280;15572;48.810;9.148;2023-02-23T11:08:19;97841.63;;;12.85;100.00
28312;BME280;15572;48.810;9.148;2023-02-23T11:13:20;97844.50;;;12.97;100.00
28312;BME280;15572;48.810;9.148;2023-02-23T11:18:20;97840.38;;;13.19;100.00
28312;BME280;15572;48.810;9.148;2023-02-23T11:23:22;97833.78;;;13.52;100.00
28312;BME280;15572;48.810;9.148;2023-02-23T11:28:25;97832.78;;;13.71;100.00
28312;BME280;15572;48.810;9.148;2023-02-23T11:33:28;97822.16;;;13.87;100.00
28312;BME280;15572;48.810;9.148;2023-02-23T11:38:30;97817.91;;;13.91;100.00
28312;BME280;15572;48.810;9.148;2023-02-23T11:43:27;97810.34;;;14.12;100.00
28312;BME280;15572;48.810;9.148;2023-02-23T11:48:27;97806.34;;;13.78;98.08
28312;BME280;15572;48.810;9.148;2023-02-23T11:53:28;97804.09;;;13.93;98.34
28312;BME280;15572;48.810;9.148;2023-02-23T11:58:34;97792.41;;;14.22;97.14
28312;BME280;15572;48.810;9.148;2023-02-23T12:03:34;97795.19;;;14.52;93.25
28312;BME280;15572;48.810;9.148;2023-02-23T12:08:38;97792.47;;;14.94;89.22
28312;BME280;15572;48.810;9.148;2023-02-23T12:13:40;97793.03;;;14.96;86.84
28312;BME280;15572;48.810;9.148;2023-02-23T12:18:45;97786.31;;;14.57;84.86
28312;BME280;15572;48.810;9.148;2023-02-23T12:23:45;97784.47;;;14.39;84.63
28312;BME280;15572;48.810;9.148;2023-02-23T12:28:47;97784.97;;;14.48;83.33
28312;BME280;15572;48.810;9.148;2023-02-23T12:33:49;97775.22;;;14.70;82.89
28312;BME280;15572;48.810;9.148;2023-02-23T12:38:53;97772.78;;;14.50;85.80
28312;BME280;15572;48.810;9.148;2023-02-23T12:43:54;97775.09;;;14.17;88.96
28312;BME280;15572;48.810;9.148;2023-02-23T12:49:00;97777.59;;;14.00;90.08
28312;BME280;15572;48.810;9.148;2023-02-23T12:53:59;97771.72;;;13.85;91.73
28312;BME280;15572;48.810;9.148;2023-02-23T12:59:03;97771.13;;;13.65;92.80
28312;BME280;15572;48.810;9.148;2023-02-23T13:04:21;97760.63;;;13.50;93.62
28312;BME280;15572;48.810;9.148;2023-02-23T13:09:38;97765.03;;;13.26;93.69
28312;BME280;15572;48.810;9.148;2023-02-23T13:14:42;97768.34;;;12.79;94.23
28312;BME280;15572;48.810;9.148;2023-02-23T13:19:48;97767.78;;;12.70;95.38
28312;BME280;15572;48.810;9.148;2023-02-23T13:24:48;97760.94;;;12.61;95.17
28312;BME280;15572;48.810;9.148;2023-02-23T13:29:48;97767.31;;;12.48;96.24
28312;BME280;15572;48.810;9.148;2023-02-23T13:34:51;97761.66;;;12.50;97.21
28312;BME280;15572;48.810;9.148;2023-02-23T13:39:55;97757.13;;;12.69;96.20
28312;BME280;15572;48.810;9.148;2023-02-23T13:45:11;97759.59;;;12.77;94.93
28312;BME280;15572;48.810;9.148;2023-02-23T13:50:19;97762.78;;;12.67;92.95
28312;BME280;15572;48.810;9.148;2023-02-23T13:55:41;97748.59;;;12.65;93.80
28312;BME280;15572;48.810;9.148;2023-02-23T14:00:43;97757.47;;;12.79;92.50
28312;BME280;15572;48.810;9.148;2023-02-23T14:05:53;97750.78;;;12.81;89.03
28312;BME280;15572;48.810;9.148;2023-02-23T14:10:51;97755.75;;;12.84;86.95
28312;BME280;15572;48.810;9.148;2023-02-23T14:16:09;97752.84;;;12.86;86.47
28312;BME280;15572;48.810;9.148;2023-02-23T14:21:26;97747.63;;;12.84;87.28
28312;BME280;15572;48.810;9.148;2023-02-23T14:26:38;97749.13;;;12.80;83.65
28312;BME280;15572;48.810;9.148;2023-02-23T14:31:36;97747.44;;;12.79;84.32
28312;BME280;15572;48.810;9.148;2023-02-23T14:36:36;97750.72;;;12.88;85.88
28312;BME280;15572;48.810;9.148;2023-02-23T14:41:38;97754.25;;;12.88;83.59
28312;BME280;15572;48.810;9.148;2023-02-23T14:46:36;97756.09;;;12.70;82.53
28312;BME280;15572;48.810;9.148;2023-02-23T14:51:36;97749.00;;;12.69;84.20
28312;BME280;15572;48.810;9.148;2023-02-23T14:56:44;97751.88;;;12.74;85.51
28312;BME280;15572;48.810;9.148;2023-02-23T15:01:42;97755.59;;;12.54;88.50
28312;BME280;15572;48.810;9.148;2023-02-23T15:06:40;97750.31;;;12.59;89.62
28312;BME280;15572;48.810;9.148;2023-02-23T15:11:37;97751.38;;;12.58;92.83
28312;BME280;15572;48.810;9.148;2023-02-23T15:16:35;97751.38;;;12.58;93.83
28312;BME280;15572;48.810;9.148;2023-02-23T15:21:32;97760.66;;;12.44;97.95
28312;BME280;15572;48.810;9.148;2023-02-23T15:26:33;97754.66;;;12.29;100.00
28312;BME280;15572;48.810;9.148;2023-02-23T15:31:30;97757.38;;;12.29;100.00
28312;BME280;15572;48.810;9.148;2023-02-23T15:36:29;97761.41;;;12.20;100.00
28312;BME280;15572;48.810;9.148;2023-02-23T15:41:31;97751.88;;;12.11;100.00
28312;BME280;15572;48.810;9.148;2023-02-23T15:46:30;97762.19;;;11.96;100.00
28312;BME280;15572;48.810;9.148;2023-02-23T15:51:31;97770.31;;;11.96;100.00
28312;BME280;15572;48.810;9.148;2023-02-23T15:56:33;97773.88;;;11.90;100.00
28312;BME280;15572;48.810;9.148;2023-02-23T16:01:31;97777.88;;;11.80;100.00
28312;BME280;15572;48.810;9.148;2023-02-23T16:06:32;97780.59;;;11.67;100.00
28312;BME280;15572;48.810;9.148;2023-02-23T16:11:33;97771.88;;;11.59;100.00
28312;BME280;15572;48.810;9.148;2023-02-23T16:16:33;97771.88;;;11.52;100.00
28312;BME280;15572;48.810;9.148;2023-02-23T16:21:30;97774.59;;;11.46;100.00
28312;BME280;15572;48.810;9.148;2023-02-23T16:26:33;97775.44;;;11.39;100.00
28312;BME280;15572;48.810;9.148;2023-02-23T16:31:41;97771.31;;;11.30;100.00
28312;BME280;15572;48.810;9.148;2023-02-23T16:36:37;97776.31;;;11.27;100.00
28312;BME280;15572;48.810;9.148;2023-02-23T16:41:35;97776.72;;;11.24;100.00
28312;BME280;15572;48.810;9.148;2023-02-23T16:46:52;97784.66;;;11.19;100.00
28312;BME280;15572;48.810;9.148;2023-02-23T16:51:50;97771.53;;;11.16;100.00
28312;BME280;15572;48.810;9.148;2023-02-23T16:56:48;97768.84;;;11.09;100.00
28312;BME280;15572;48.810;9.148;2023-02-23T17:01:49;97776.31;;;11.07;100.00
28312;BME280;15572;48.810;9.148;2023-02-23T17:06:46;97775.91;;;11.04;100.00
28312;BME280;15572;48.810;9.148;2023-02-23T17:11:53;97778.44;;;10.98;100.00
28312;BME280;15572;48.810;9.148;2023-02-23T17:16:51;97782.38;;;10.96;100.00
28312;BME280;15572;48.810;9.148;2023-02-23T17:21:47;97780.72;;;10.95;100.00
28312;BME280;15572;48.810;9.148;2023-02-23T17:26:44;97781.97;;;10.92;100.00
28312;BME280;15572;48.810;9.148;2023-02-23T17:31:41;97785.91;;;10.90;100.00
28312;BME280;15572;48.810;9.148;2023-02-23T17:36:38;97793.63;;;10.86;100.00
28312;BME280;15572;48.810;9.148;2023-02-23T17:41:34;97800.31;;;10.84;100.00
28312;BME280;15572;48.810;9.148;2023-02-23T17:46:31;97801.94;;;10.65;100.00
28312;BME280;15572;48.810;9.148;2023-02-23T17:51:29;97813.38;;;10.54;100.00
28312;BME280;15572;48.810;9.148;2023-02-23T17:56:25;97800.44;;;10.36;100.00
28312;BME280;15572;48.810;9.148;2023-02-23T18:01:25;97799.75;;;10.21;100.00
28312;BME280;15572;48.810;9.148;2023-02-23T18:06:21;97806.31;;;10.05;100.00
28312;BME280;15572;48.810;9.148;2023-02-23T18:11:19;97810.03;;;9.91;100.00
28312;BME280;15572;48.810;9.148;2023-02-23T18:16:17;97808.50;;;9.76;100.00
28312;BME280;15572;48.810;9.148;2023-02-23T18:21:16;97802.41;;;9.67;100.00
28312;BME280;15572;48.810;9.148;2023-02-23T18:26:14;97799.47;;;9.55;100.00
28312;BME280;15572;48.810;9.148;2023-02-23T18:31:14;97804.34;;;9.39;100.00
28312;BME280;15572;48.810;9.148;2023-02-23T18:36:16;97805.50;;;9.29;100.00
28312;BME280;15572;48.810;9.148;2023-02-23T18:41:13;97801.31;;;9.20;100.00
28312;BME280;15572;48.810;9.148;2023-02-23T18:46:12;97793.97;;;9.14;100.00
28312;BME280;15572;48.810;9.148;2023-02-23T18:54:58;97794.94;;;9.00;100.00
28312;BME280;15572;48.810;9.148;2023-02-23T18:59:54;97790.81;;;9.04;100.00
28312;BME280;15572;48.810;9.148;2023-02-23T19:04:50;97795.72;;;8.94;100.00
28312;BME280;15572;48.810;9.148;2023-02-23T19:09:47;97804.59;;;8.88;100.00
28312;BME280;15572;48.810;9.148;2023-02-23T19:14:45;97795.16;;;8.77;100.00
28312;BME280;15572;48.810;9.148;2023-02-23T19:19:41;97779.38;;;8.74;100.00
28312;BME280;15572;48.810;9.148;2023-02-23T19:24:38;97787.91;;;8.78;100.00
28312;BME280;15572;48.810;9.148;2023-02-23T19:29:34;97785.25;;;8.84;100.00
28312;BME280;15572;48.810;9.148;2023-02-23T19:34:33;97783.00;;;8.88;100.00
28312;BME280;15572;48.810;9.148;2023-02-23T19:39:29;97791.09;;;8.88;100.00
28312;BME280;15572;48.810;9.148;2023-02-23T19:44:26;97786.97;;;8.92;100.00
28312;BME280;15572;48.810;9.148;2023-02-23T19:49:22;97786.78;;;8.94;100.00
28312;BME280;15572;48.810;9.148;2023-02-23T19:54:21;97778.44;;;8.88;100.00
28312;BME280;15572;48.810;9.148;2023-02-23T19:59:20;97780.22;;;8.81;100.00
28312;BME280;15572;48.810;9.148;2023-02-23T20:04:16;97789.31;;;8.74;100.00
28312;BME280;15572;48.810;9.148;2023-02-23T20:09:13;97792.38;;;8.71;100.00
28312;BME280;15572;48.810;9.148;2023-02-23T20:14:11;97790.75;;;8.70;100.00
28312;BME280;15572;48.810;9.148;2023-02-23T20:19:08;97785.59;;;8.75;100.00
28312;BME280;15572;48.810;9.148;2023-02-23T20:24:05;97786.03;;;8.78;100.00
28312;BME280;15572;48.810;9.148;2023-02-23T20:29:03;97787.72;;;8.79;100.00
28312;BME280;15572;48.810;9.148;2023-02-23T20:34:04;97795.41;;;8.82;100.00
28312;BME280;15572;48.810;9.148;2023-02-23T20:39:02;97788.97;;;8.83;100.00
28312;BME280;15572;48.810;9.148;2023-02-23T20:43:58;97791.03;;;8.81;100.00
28312;BME280;15572;48.810;9.148;2023-02-23T20:48:55;97792.25;;;8.79;100.00
28312;BME280;15572;48.810;9.148;2023-02-23T20:53:54;97794.31;;;8.77;100.00
28312;BME280;15572;48.810;9.148;2023-02-23T20:58:51;97787.00;;;8.71;100.00
28312;BME280;15572;48.810;9.148;2023-02-23T21:03:48;97778.88;;;8.64;100.00
28312;BME280;15572;48.810;9.148;2023-02-23T21:08:45;97781.94;;;8.61;100.00
28312;BME280;15572;48.810;9.148;2023-02-23T21:13:44;97774.31;;;8.65;100.00
28312;BME280;15572;48.810;9.148;2023-02-23T21:18:41;97772.38;;;8.59;100.00
28312;BME280;15572;48.810;9.148;2023-02-23T21:23:39;97779.22;;;8.61;100.00
28312;BME280;15572;48.810;9.148;2023-02-23T21:28:37;97766.97;;;8.59;100.00
28312;BME280;15572;48.810;9.148;2023-02-23T21:33:35;97773.41;;;8.58;100.00
28312;BME280;15572;48.810;9.148;2023-02-23T21:38:31;97767.34;;;8.56;100.00
28312;BME280;15572;48.810;9.148;2023-02-23T21:43:28;97771.53;;;8.58;100.00
28312;BME280;15572;48.810;9.148;2023-02-23T21:48:25;97767.22;;;8.64;100.00
28312;BME280;15572;48.810;9.148;2023-02-23T21:53:25;97768.25;;;8.63;100.00
28312;BME280;15572;48.810;9.148;2023-02-23T21:58:21;97765.16;;;8.66;100.00
28312;BME280;15572;48.810;9.148;2023-02-23T22:03:17;97759.75;;;8.66;100.00
28312;BME280;15572;48.810;9.148;2023-02-23T22:08:14;97762.09;;;8.69;100.00
28312;BME280;15572;48.810;9.148;2023-02-23T22:13:12;97764.13;;;8.67;100.00
28312;BME280;15572;48.810;9.148;2023-02-23T22:18:08;97768.50;;;8.68;100.00
28312;BME280;15572;48.810;9.148;2023-02-23T22:23:08;97763.09;;;8.68;100.00
28312;BME280;15572;48.810;9.148;2023-02-23T22:28:04;97767.84;;;8.66;100.00
28312;BME280;15572;48.810;9.148;2023-02-23T22:33:04;97761.66;;;8.65;100.00
28312;BME280;15572;48.810;9.148;2023-02-23T22:38:00;97755.41;;;8.65;100.00
28312;BME280;15572;48.810;9.148;2023-02-23T22:42:58;97756.25;;;8.65;100.00
28312;BME280;15572;48.810;9.148;2023-02-23T22:47:55;97749.94;;;8.58;100.00
28312;BME280;15572;48.810;9.148;2023-02-23T22:52:56;97755.53;;;8.57;100.00
28312;BME280;15572;48.810;9.148;2023-02-23T22:57:53;97741.84;;;8.58;100.00
28312;BME280;15572;48.810;9.148;2023-02-23T23:02:50;97735.22;;;8.61;100.00
28312;BME280;15572;48.810;9.148;2023-02-23T23:07:47;97735.47;;;8.66;100.00
28312;BME280;15572;48.810;9.148;2023-02-23T23:12:44;97729.94;;;8.74;100.00
28312;BME280;15572;48.810;9.148;2023-02-23T23:17:43;97734.31;;;8.75;100.00
28312;BME280;15572;48.810;9.148;2023-02-23T23:22:42;97724.88;;;8.64;100.00
28312;BME280;15572;48.810;9.148;2023-02-23T23:27:39;97722.19;;;8.64;100.00
28312;BME280;15572;48.810;9.148;2023-02-23T23:32:37;97718.66;;;8.64;100.00
28312;BME280;15572;48.810;9.148;2023-02-23T23:37:35;97714.72;;;8.66;100.00
28312;BME280;15572;48.810;9.148;2023-02-23T23:42:33;97714.72;;;8.66;100.00
28312;BME280;15572;48.810;9.148;2023-02-23T23:47:30;97703.97;;;8.73;100.00
28312;BME280;15572;48.810;9.148;2023-02-23T23:52:28;97702.47;;;8.64;100.00
28312;BME280;15572;48.810;9.148;2023-02-23T23:57:25;97701.19;;;8.60;100.00
